Portada
METAR-TAF:

METAR-TAF

Aeropuertos :

Kulusuk, Groenlandia

latitud: 65-35N, longitud: 037-09W, altitud: 35 m

Observación

El informe se hizo hace 11 minutos, a las 14:50 UTC
Viento 3 kt del oeste
Temperatura -2°C
Humedad 93%
Presión 996 hPa
Visibilidad: 4000 m
Escasas nubes a una altura de 900 ft
Cielo nuboso a una altura de 2200 ft
poca nieve,

METAR: BGKK 041450Z 27003KT 4000 -SN FEW009 BKN022 M02/M03 Q0996

Hora: 12:01 (15:01 UTC)

Pronóstico

El informe se hizo hace 47 minutos, a las 14:14 UTC
Pronóstico válido del 04 a las 15 UTC al 04 a las 19 UTC
Viento 6 kt con dirección variable
Visibilidad: 1000 m
Cielo nuboso a una altura de 2000 ft
nieve
Temporalmente
del 04 a las 15 UTC al 04 a las 19 UTC
Visibilidad: 8000 m
Cielo nuboso a una altura de 1000 ft
poca nieve,

TAF: BGKK 041414Z 0415/0419 VRB06KT 1000 SN BKN020 TEMPO 0415/0419 8000 -SN BKN010

Observaciones y pronósticos meteorológicos de más de 4000 aeropuertos (mensajes METAR y TAF).

Los puntos amarillos y rojos representan las estaciones disponibles.

Ponga el ratón en el punto deseado para ver el nombre de la estación.

Haga clic para ver las observaciones y los pronósticos meteorológicos.

Para cambiar el mapa : haga clic en los botones verdes con una cruz de color negro para hacer un zoom, en el botón verde con un guión para alejar o en las flechas verdes para mapas adyacentes.


METAR-TAF: